METAR Data
IDs: Format: Raw Decoded Include TAF

Data at: 1429 UTC 21 May 2019

KCNC 211415Z AUTO 09018G24KT 9SM FEW013 BKN035 08/07 A2987 RMK AO2
KCNC 211355Z AUTO 09016G25KT 10SM FEW014 OVC037 08/07 A2987 RMK AO2
KCNC 211335Z AUTO 10014G22KT 10SM SCT012 BKN016 OVC038 08/07 A2989 RMK AO2
KCNC 211315Z AUTO 09014G22KT 10SM OVC012 08/07 A2989 RMK AO2
KCNC 211255Z AUTO 10016G23KT 10SM OVC012 08/07 A2992 RMK AO2
KCNC 211235Z AUTO 10018KT 10SM OVC011 08/07 A2993 RMK AO2
KCNC 211215Z AUTO 09015G32KT 10SM OVC012 08/07 A2988 RMK AO2
KCNC 211155Z AUTO 09018G29KT 10SM OVC012 08/07 A2988 RMK AO2
KCNC 211135Z AUTO 10022G29KT 10SM OVC010 08/07 A2989 RMK AO2
KCNC 211115Z AUTO 10017KT 10SM OVC011 08/08 A2991 RMK AO2
KCNC 211055Z AUTO 11021KT 10SM OVC012 08/08 A2991 RMK AO2
KCNC 211035Z AUTO 11015G22KT 10SM OVC012 09/08 A2993 RMK AO2
KCNC 211015Z AUTO 10013G23KT 10SM OVC012 09/08 A2991 RMK AO2
KCNC 210955Z AUTO 10015KT 10SM OVC012 09/08 A2992 RMK AO2 P0002
KCNC 210935Z AUTO 11013KT 9SM BKN010 OVC023 09/08 A2994 RMK AO2
KCNC 210915Z AUTO 10016G23KT 6SM -RA OVC009 08/08 A2991 RMK AO2
KCNC 210855Z AUTO 10018G25KT 3SM BR OVC009 08/08 A2992 RMK AO2
KCNC 210835Z AUTO 10016G24KT 3SM BR OVC009 08/08 A2991 RMK AO2
KCNC 210815Z AUTO 10015G21KT 6SM BR OVC010 09/08 A2992 RMK AO2
KCNC 210755Z AUTO 09014G19KT 10SM OVC011 09/08 A2993 RMK AO2
KCNC 210735Z AUTO 09015G20KT 10SM OVC011 09/08 A2993 RMK AO2
KCNC 210715Z AUTO 09012G19KT 10SM OVC011 09/08 A2994 RMK AO2
KCNC 210655Z AUTO 09015KT 10SM OVC011 09/08 A2994 RMK AO2
KCNC 210635Z AUTO 08012G18KT 10SM OVC011 09/08 A2995 RMK AO2
KCNC 210615Z AUTO 08016KT 10SM OVC011 09/08 A2993 RMK AO2
KCNC 210555Z AUTO 08014KT 10SM BKN011 OVC016 09/08 A2995 RMK AO2
KCNC 210535Z AUTO 08016G22KT 10SM OVC013 09/08 A2996 RMK AO2
KCNC 210515Z AUTO 09014G24KT 10SM OVC012 09/08 A2996 RMK AO2
KCNC 210455Z AUTO 10017G27KT 10SM OVC013 09/08 A2996 RMK AO2
KCNC 210435Z AUTO 10017G23KT 10SM OVC013 09/08 A2995 RMK AO2
KCNC 210415Z AUTO 09017KT 10SM BKN013 OVC075 09/08 A2998 RMK AO2
KCNC 210355Z AUTO 09015KT 10SM BKN012 OVC080 09/09 A2998 RMK AO2
KCNC 210335Z AUTO 10012G18KT 10SM SCT011 BKN080 OVC090 09/09 A2999 RMK AO2
KCNC 210315Z AUTO 09014KT 10SM FEW010 OVC090 09/09 A2999 RMK AO2
KCNC 210255Z AUTO 09018KT 10SM FEW008 FEW080 OVC090 09/09 A2998 RMK AO2 P0001
KCNC 210235Z AUTO 10012G20KT 10SM -DZ FEW008 BKN085 OVC110 09/08 A3000 RMK AO2
KCNC 210215Z AUTO 10014KT 9SM -RA FEW009 SCT035 BKN065 09/08 A3002 RMK AO2
KCNC 210155Z AUTO 11010KT 7SM -RA SCT031 BKN065 OVC080 09/09 A3005 RMK AO2 P0005
KCNC 210135Z AUTO 10010KT 6SM -RA FEW035 SCT043 OVC085 09/09 A3006 RMK AO2
KCNC 210115Z AUTO 11009KT 6SM -RA FEW032 SCT041 BKN050 09/09 A3007 RMK AO2
KCNC 210055Z AUTO 10008KT 5SM -RA FEW040 FEW047 FEW055 09/09 A3007 RMK AO2 P0013
KCNC 210035Z AUTO 11006KT 4SM -RA FEW033 SCT040 BKN075 09/09 A3008 RMK AO2
KCNC 210015Z AUTO 12006KT 3SM -RA BKN034 BKN045 BKN050 09/09 A3010 RMK AO2
KCNC 202355Z AUTO 12004KT 4SM -RA FEW043 FEW048 FEW060 09/09 A3009 RMK AO2 P0009
KCNC 202335Z AUTO 11005KT 4SM -RA FEW041 FEW060 10/08 A3009 RMK AO2
KCNC 202315Z AUTO 07007KT 4SM -RA CLR 10/08 A3008 RMK AO2
KCNC 202255Z AUTO 07008KT 9SM -RA CLR 11/07 A3009 RMK AO2
KCNC 202235Z AUTO 06008KT 10SM CLR 11/07 A3007 RMK AO2
KCNC 202215Z AUTO 9/00000009KT 10SM SCT027 11/07 A3009 RMK AO2
KCNC 202155Z AUTO 08008KT 10SM SCT026 11/07 A3011 RMK AO2
KCNC 202135Z AUTO 05010KT 10SM FEW027 11/07 A3011 RMK AO2
KCNC 202115Z AUTO 09007KT 10SM CLR 11/06 A3013 RMK AO2
KCNC 202055Z AUTO 06008KT 10SM CLR 11/07 A3011 RMK AO2
KCNC 202035Z AUTO 06011KT 10SM SCT026 11/07 A3009 RMK AO2
KCNC 202015Z AUTO 05008KT 10SM BKN026 11/06 A3011 RMK AO2
KCNC 201955Z AUTO 05007KT 10SM BKN025 11/06 A3012 RMK AO2
KCNC 201935Z AUTO 05006G14KT 10SM BKN026 11/06 A3013 RMK AO2
KCNC 201915Z AUTO 07007KT 10SM 11/06 A3015 RMK AO2
KCNC 201855Z AUTO 07006KT 10SM 11/06 A3015 RMK AO2
KCNC 201835Z AUTO 07007G13KT 10SM 10/06 A3015 RMK AO2
KCNC 201815Z AUTO 05008G14KT 10/06 A3015 RMK AO2 PWINO
KCNC 201755Z AUTO 02009KT 360V070 10/06 A3014 RMK AO2 PWINO
KCNC 201735Z AUTO 05011KT 10SM 10/06 A3014 RMK AO2
KCNC 201715Z AUTO 02010KT 10SM 10/06 A3014 RMK AO2
KCNC 201655Z AUTO 05010KT 10SM 09/05 A3017 RMK AO2
KCNC 201635Z AUTO VRB06G12KT 10SM 09/05 A3018 RMK AO2
KCNC 201615Z AUTO A3016 RMK AO2 PWINO
KCNC 201555Z AUTO 03010KT 10SM 08/05 A3015 RMK AO2
KCNC 201535Z AUTO 02008G14KT 10SM 08/05 A3016 RMK AO2
KCNC 201515Z AUTO 36010KT 10SM 08/05 A3015 RMK AO2
KCNC 201455Z AUTO 02009KT 10SM 08/05 A3016 RMK AO2
KCNC 201435Z AUTO 02011KT 10SM 08/04 A3016 RMK AO2
KCNC 201415Z AUTO 36009KT 10SM 08/05 A3015 RMK AO2
KCNC 201355Z AUTO 02009G17KT 10SM 07/04 A3015 RMK AO2
KCNC 201335Z AUTO 01010G16KT 10SM 06/03 A3012 RMK AO2
KCNC 201315Z AUTO 35011KT 10SM 06/03 A3012 RMK AO2
KCNC 201255Z AUTO 36008G14KT 10SM OVC016 06/04 A3011 RMK AO2
KCNC 201235Z AUTO 36012KT 10SM OVC016 05/04 A3010 RMK AO2
KCNC 201215Z AUTO 36011KT 10SM OVC016 05/03 A3010 RMK AO2
KCNC 201155Z AUTO 35012KT 10SM OVC015 05/03 A3010 RMK AO2
KCNC 201135Z AUTO 36014KT 10SM OVC016 05/03 A3010 RMK AO2
KCNC 201115Z AUTO 35011KT 10SM OVC017 05/03 A3009 RMK AO2
KCNC 201055Z AUTO 35011G16KT 10SM OVC016 06/04 A3008 RMK AO2
KCNC 201035Z AUTO 33012G17KT 10SM OVC017 06/04 A3007 RMK AO2
KCNC 201015Z AUTO 35010G16KT 10SM OVC016 06/04 A3006 RMK AO2
KCNC 200955Z AUTO 35008KT 10SM OVC015 06/05 A3006 RMK AO2
KCNC 200935Z AUTO 33011KT 10SM BKN017 OVC021 06/05 A3007 RMK AO2
KCNC 200915Z AUTO 35012KT 10SM BKN016 OVC022 07/05 A3006 RMK AO2
KCNC 200855Z AUTO 33011KT 10SM SCT012 BKN018 OVC023 07/06 A3006 RMK AO2
KCNC 200835Z AUTO 34010G16KT 10SM OVC012 07/06 A3005 RMK AO2
KCNC 200815Z AUTO 34013KT 10SM BKN013 BKN018 OVC030 08/07 A3004 RMK AO2
KCNC 200755Z AUTO 33009G15KT 10SM SCT023 OVC030 08/06 A3003 RMK AO2
KCNC 200735Z AUTO 33013G19KT 10SM OVC020 08/06 A3002 RMK AO2
KCNC 200715Z AUTO 34016KT 10SM BKN016 BKN021 OVC031 08/07 A3002 RMK AO2
KCNC 200655Z AUTO 33012G18KT 10SM FEW012 BKN017 OVC037 09/08 A3002 RMK AO2
KCNC 200635Z AUTO 33011KT 9SM FEW014 OVC039 09/09 A3001 RMK AO2
KCNC 200615Z AUTO 32009KT 10SM OVC040 09/09 A3001 RMK AO2
KCNC 200555Z AUTO 30007KT 10SM OVC037 09/08 A3001 RMK AO2
KCNC 200535Z AUTO 31008KT 10SM FEW022 OVC037 09/09 A3000 RMK AO2
KCNC 200515Z AUTO 32009G15KT 10SM FEW020 BKN025 OVC041 09/08 A3000 RMK AO2
KCNC 200455Z AUTO 32017G23KT 09/08 A2999 RMK AO2
KCNC 200435Z AUTO 30010KT 10SM BKN037 OVC042 11/08 A2998 RMK AO2
KCNC 200415Z AUTO 31012G20KT 10SM SCT025 OVC035 11/08 A2998 RMK AO2
KCNC 200355Z AUTO 29012KT 10SM SCT026 OVC039 11/08 A2997 RMK AO2
KCNC 200335Z AUTO 29009KT 10SM OVC041 11/08 A2996 RMK AO2
KCNC 200315Z AUTO 29008G14KT 10SM BKN039 12/08 A2994 RMK AO2
KCNC 200255Z AUTO 30012KT 10SM SCT044 SCT050 11/08 A2994 RMK AO2
KCNC 200235Z AUTO 27007G14KT 10SM OVC046 12/08 A2994 RMK AO2